Cronos — CA4779 — position and weather

sailwx.info

Track history (hours):
 
Tides and Currents Weather Stations Pressure Air Temp Water Temp Dewpoint Dewpoint Depression Visibility Wind Speed Wind Dir Waves Ship Positions

Cronos

Last reported at 2018-Jan-09 04:34 UTC. Time now 2018-Jan-22 16:00 UTC.
Position S 32°49' W 071°37'.
Warning: this ship's position is 13 days out of date.

Length 18 m; draft 6 m.

Type: Pilot. MMSI: 725001153.

Date/timePositionNaut miles runAvg speedWind from/ knotsBaromVisibWave heightAir tempDewpointWater temp
2018-Jan-09 04:34S 32°49' W 071°37'1 8.7
2018-Jan-09 04:30S 32°49' W 071°37'4 8.9
2018-Jan-09 04:00S 32°54' W 071°37'3 0.1
2018-Jan-08 00:59S 32°57' W 071°36'510.4
2018-Jan-08 00:30S 32°52' W 071°37'510.5
2018-Jan-08 00:00S 32°47' W 071°37'4 2.4
2018-Jan-07 22:13S 32°47' W 071°31'0 0.0
2018-Jan-06 18:01S 32°46' W 071°32'0 0.0
2018-Jan-06 17:13S 32°47' W 071°32'0 0.1
2018-Jan-06 16:03S 32°47' W 071°31'0 0.2
2018-Jan-06 15:46S 32°47' W 071°32'0 0.1
2018-Jan-06 15:30S 32°47' W 071°32'0 0.1
2018-Jan-06 14:43S 32°47' W 071°31'0 0.1
2018-Jan-06 10:57S 32°46' W 071°31'  
2018-Jan-03 13:50S 32°47' W 071°32'  
Track history (hours):
 
Tides and Currents Weather Stations Pressure Air Temp Water Temp Dewpoint Dewpoint Depression Visibility Wind Speed Wind Dir Waves Ship Positions

Cronos

Last reported at 2018-Jan-09 04:34 UTC. Time now 2018-Jan-22 16:00 UTC.
Position S 32°49' W 071°37'.
Warning: this ship's position is 13 days out of date.

Length 18 m; draft 6 m.

Type: Pilot. MMSI: 725001153.

Date/timePositionNaut miles runAvg speedWind from/ knotsBaromVisibWave heightAir tempDewpointWater temp
2018-Jan-09 04:34S 32°49' W 071°37'1 8.7
2018-Jan-09 04:30S 32°49' W 071°37'4 8.9
2018-Jan-09 04:00S 32°54' W 071°37'3 0.1
2018-Jan-08 00:59S 32°57' W 071°36'510.4
2018-Jan-08 00:30S 32°52' W 071°37'510.5
2018-Jan-08 00:00S 32°47' W 071°37'4 2.4
2018-Jan-07 22:13S 32°47' W 071°31'0 0.0
2018-Jan-06 18:01S 32°46' W 071°32'0 0.0
2018-Jan-06 17:13S 32°47' W 071°32'0 0.1
2018-Jan-06 16:03S 32°47' W 071°31'0 0.2
2018-Jan-06 15:46S 32°47' W 071°32'0 0.1
2018-Jan-06 15:30S 32°47' W 071°32'0 0.1
2018-Jan-06 14:43S 32°47' W 071°31'0 0.1
2018-Jan-06 10:57S 32°46' W 071°31'  
2018-Jan-03 13:50S 32°47' W 071°32'  

Dump ship's entire track history